Time;durP1;ratioP1;P1;durP2;ratioP2;P2;SDS_P1;SDS_P2;PMS_P1;PMS_P2;Temp;Humidity;BMP_temperature;BMP_pressure;BME280_temperature;BME280_humidity;BME280_pressure;Samples;Min_cycle;Max_cycle;Signal;HPM_P1;HPM_P2
2022/08/28 00:01:19;;;;;;;9.38;3.63;;;15.40;99.90;;;;;;5069026;28;20049;-67
2022/08/28 00:03:53;;;;;;;11.90;4.57;;;15.40;99.90;;;;;;5069054;28;20024;-67
2022/08/28 00:06:43;;;;;;;13.75;4.35;;;15.40;99.90;;;;;;5066461;28;20036;-66
2022/08/28 00:12:56;;;;;;;14.82;3.97;;;15.40;99.90;;;;;;5042996;28;20522;-68
2022/08/28 00:15:43;;;;;;;11.38;3.97;;;15.40;99.90;;;;;;5090624;28;20111;-70
2022/08/28 00:18:08;;;;;;;10.82;3.30;;;15.40;99.90;;;;;;5071365;28;20024;-67
2022/08/28 00:20:34;;;;;;;11.30;3.40;;;15.40;99.90;;;;;;5074503;28;20036;-67
2022/08/28 00:23:00;;;;;;;14.55;4.25;;;15.50;99.90;;;;;;5074644;28;20020;-67
2022/08/28 00:25:28;;;;;;;10.90;3.42;;;15.50;99.90;;;;;;5073224;28;20023;-67
2022/08/28 00:27:56;;;;;;;13.13;3.63;;;15.50;99.90;;;;;;5074346;28;20024;-68
2022/08/28 00:30:35;;;;;;;13.02;3.80;;;15.60;99.90;;;;;;5074035;28;20066;-67
2022/08/28 00:33:05;;;;;;;8.85;3.33;;;15.60;99.90;;;;;;5072138;28;20096;-67
2022/08/28 00:35:31;;;;;;;6.75;2.95;;;15.60;99.90;;;;;;5073110;28;20023;-67
2022/08/28 00:37:56;;;;;;;11.55;3.28;;;15.70;99.90;;;;;;5074094;28;20389;-68
2022/08/28 00:40:24;;;;;;;12.98;3.45;;;15.70;99.90;;;;;;5074290;28;20039;-68
2022/08/28 00:42:50;;;;;;;9.70;3.00;;;15.70;99.90;;;;;;5074042;28;20404;-70
2022/08/28 00:45:18;;;;;;;8.23;3.10;;;15.80;99.90;;;;;;5073987;28;20458;-70
2022/08/28 00:47:45;;;;;;;8.95;3.28;;;15.80;99.90;;;;;;5074065;28;20362;-66
2022/08/28 00:50:16;;;;;;;11.98;3.25;;;15.80;99.90;;;;;;5074158;28;20024;-69
2022/08/28 00:52:45;;;;;;;13.82;3.40;;;15.80;99.90;;;;;;5075407;28;20023;-66
2022/08/28 00:55:14;;;;;;;9.60;3.08;;;15.80;99.90;;;;;;5073991;28;20029;-67
2022/08/28 00:57:47;;;;;;;8.82;2.80;;;15.80;99.90;;;;;;5074054;28;20031;-68
2022/08/28 01:00:28;;;;;;;11.10;3.53;;;15.70;99.90;;;;;;5074785;28;20121;-66
2022/08/28 01:02:54;;;;;;;8.23;3.00;;;15.70;99.90;;;;;;5074775;28;20067;-67
2022/08/28 01:05:20;;;;;;;8.30;2.83;;;15.60;99.90;;;;;;5073501;28;20025;-66
2022/08/28 01:07:48;;;;;;;8.35;3.42;;;15.50;99.90;;;;;;5074508;28;20029;-67
2022/08/28 01:10:17;;;;;;;12.02;4.25;;;15.50;99.90;;;;;;5074914;28;20104;-67
2022/08/28 01:12:44;;;;;;;10.45;3.13;;;15.40;99.90;;;;;;5074531;28;20484;-67
2022/08/28 01:15:15;;;;;;;7.85;2.92;;;15.30;99.90;;;;;;5074257;28;20027;-66
2022/08/28 01:17:45;;;;;;;12.35;3.45;;;15.30;99.90;;;;;;5068266;28;20017;-66
2022/08/28 01:20:16;;;;;;;8.88;3.10;;;15.20;99.90;;;;;;5054755;28;20373;-66
2022/08/28 01:22:58;;;;;;;10.35;3.80;;;15.10;99.90;;;;;;5054267;28;20439;-67
2022/08/28 01:25:27;;;;;;;9.32;3.63;;;15.10;99.90;;;;;;5053923;28;20028;-66
2022/08/28 01:27:54;;;;;;;11.65;4.05;;;15.00;99.90;;;;;;5054236;28;20082;-67
2022/08/28 01:30:22;;;;;;;11.70;3.58;;;14.90;99.90;;;;;;5054477;28;20024;-66
2022/08/28 01:32:54;;;;;;;8.27;3.80;;;14.90;99.90;;;;;;5054284;28;20056;-67
2022/08/28 01:35:30;;;;;;;7.32;3.28;;;14.80;99.90;;;;;;5054439;28;20036;-67
2022/08/28 01:37:57;;;;;;;9.00;3.45;;;14.80;99.90;;;;;;5053886;28;20063;-69
2022/08/28 01:40:33;;;;;;;10.27;3.35;;;14.70;99.90;;;;;;5053805;28;20025;-67
2022/08/28 01:43:11;;;;;;;11.65;3.55;;;14.70;99.90;;;;;;5054083;28;20071;-66
2022/08/28 01:45:38;;;;;;;10.88;2.83;;;14.70;99.90;;;;;;5052731;28;20025;-66
2022/08/28 01:48:06;;;;;;;12.45;3.53;;;14.60;99.90;;;;;;5053537;28;20463;-67
2022/08/28 01:50:32;;;;;;;15.27;3.40;;;14.60;99.90;;;;;;5053975;28;20036;-66
2022/08/28 01:52:59;;;;;;;13.25;3.60;;;14.60;99.90;;;;;;5054404;28;20057;-67
2022/08/28 01:55:25;;;;;;;7.82;3.10;;;14.60;99.90;;;;;;5052721;28;20043;-67
2022/08/28 01:57:52;;;;;;;10.38;3.53;;;14.70;99.90;;;;;;5054002;28;20447;-67
2022/08/28 02:00:20;;;;;;;12.60;3.00;;;14.70;99.90;;;;;;5053711;28;20442;-67
2022/08/28 02:02:47;;;;;;;11.63;3.40;;;14.70;99.90;;;;;;5053694;28;20178;-67
2022/08/28 02:05:13;;;;;;;10.43;3.00;;;14.70;99.90;;;;;;5053416;28;20024;-66
2022/08/28 02:07:39;;;;;;;11.88;3.17;;;14.70;99.90;;;;;;5053573;28;20016;-71
2022/08/28 02:10:10;;;;;;;15.57;3.20;;;14.70;99.90;;;;;;5053299;28;20025;-68
2022/08/28 02:12:36;;;;;;;8.02;2.60;;;14.70;99.90;;;;;;5053368;28;20025;-67
2022/08/28 02:15:04;;;;;;;12.55;3.22;;;14.70;99.90;;;;;;5053327;28;20035;-71
2022/08/28 02:17:29;;;;;;;13.80;3.17;;;14.70;99.90;;;;;;5057684;28;20370;-67
2022/08/28 02:19:55;;;;;;;7.70;2.42;;;14.70;99.90;;;;;;5073141;28;20020;-70
2022/08/28 02:22:20;;;;;;;12.73;2.55;;;14.70;99.90;;;;;;5073113;28;20111;-68
2022/08/28 02:24:46;;;;;;;9.82;2.38;;;14.70;99.90;;;;;;5073561;28;20031;-69
2022/08/28 02:27:11;;;;;;;13.77;2.45;;;14.70;99.90;;;;;;5072934;28;20031;-69
2022/08/28 02:29:38;;;;;;;11.40;2.55;;;14.70;99.90;;;;;;5073247;28;20031;-68
2022/08/28 02:32:04;;;;;;;10.30;2.90;;;14.70;99.90;;;;;;5072762;28;20047;-67
2022/08/28 02:34:31;;;;;;;10.05;2.70;;;14.70;99.90;;;;;;5072502;28;20062;-70
2022/08/28 02:36:57;;;;;;;9.85;2.30;;;14.70;99.90;;;;;;5073063;28;20017;-66
2022/08/28 02:39:22;;;;;;;8.80;2.75;;;14.70;99.90;;;;;;5073371;28;20454;-67
2022/08/28 02:41:48;;;;;;;9.65;2.38;;;14.70;99.90;;;;;;5072599;28;20032;-67
2022/08/28 02:44:14;;;;;;;11.65;2.25;;;14.70;99.90;;;;;;5072891;28;20039;-67
2022/08/28 02:46:39;;;;;;;10.50;3.20;;;14.70;99.90;;;;;;5072655;28;20028;-67
2022/08/28 02:49:05;;;;;;;10.00;2.47;;;14.80;99.90;;;;;;5072917;28;20017;-66
2022/08/28 02:51:34;;;;;;;7.35;2.40;;;14.80;99.90;;;;;;5073362;28;20188;-71
2022/08/28 02:54:00;;;;;;;7.43;2.10;;;14.80;99.90;;;;;;5073134;28;20107;-70
2022/08/28 02:56:26;;;;;;;9.05;2.50;;;14.80;99.90;;;;;;5073138;28;20143;-66
2022/08/28 02:58:52;;;;;;;10.77;2.53;;;14.80;99.90;;;;;;5072521;28;20020;-67
2022/08/28 03:01:18;;;;;;;8.55;2.38;;;14.80;99.90;;;;;;5072546;28;20028;-67
2022/08/28 03:03:43;;;;;;;6.43;2.03;;;14.80;99.90;;;;;;5072446;28;20034;-67
2022/08/28 03:06:11;;;;;;;11.77;2.55;;;14.90;99.90;;;;;;5072237;28;20028;-67
2022/08/28 03:08:38;;;;;;;10.43;2.58;;;14.80;99.90;;;;;;5072557;28;20020;-67
2022/08/28 03:11:03;;;;;;;10.43;2.47;;;14.80;99.90;;;;;;5072838;28;20115;-69
2022/08/28 03:13:30;;;;;;;9.00;2.50;;;14.80;99.90;;;;;;5072498;28;20100;-69
2022/08/28 03:15:56;;;;;;;13.07;2.42;;;14.80;99.90;;;;;;5072443;28;20021;-67
2022/08/28 03:18:24;;;;;;;8.57;2.50;;;14.80;99.90;;;;;;5072544;28;20020;-68
2022/08/28 03:20:49;;;;;;;11.35;2.03;;;14.80;99.90;;;;;;5072534;28;20047;-67
2022/08/28 03:23:27;;;;;;;14.07;2.50;;;14.80;99.90;;;;;;5072590;28;20029;-67
2022/08/28 03:25:58;;;;;;;9.15;2.58;;;14.80;99.90;;;;;;5072317;28;20052;-67
2022/08/28 03:28:25;;;;;;;7.20;2.35;;;14.80;99.90;;;;;;5072566;28;20020;-67
2022/08/28 03:30:51;;;;;;;9.93;2.60;;;14.80;99.90;;;;;;5072010;28;20016;-67
2022/08/28 03:33:17;;;;;;;6.53;2.65;;;14.80;99.90;;;;;;5072322;28;20028;-69
2022/08/28 03:35:43;;;;;;;6.30;2.33;;;14.80;99.90;;;;;;5072340;28;20363;-70
2022/08/28 03:38:10;;;;;;;9.98;2.33;;;14.80;99.90;;;;;;5072479;28;20021;-67
2022/08/28 03:40:41;;;;;;;14.38;2.65;;;14.80;99.90;;;;;;5072452;28;20023;-67
2022/08/28 03:43:11;;;;;;;8.18;2.20;;;14.80;99.90;;;;;;5072489;28;20459;-67
2022/08/28 03:45:36;;;;;;;12.32;2.85;;;14.80;99.90;;;;;;5075350;28;20473;-67
2022/08/28 03:48:03;;;;;;;10.82;2.80;;;14.90;99.90;;;;;;5076459;28;20024;-67
2022/08/28 03:50:30;;;;;;;10.45;2.60;;;14.90;99.90;;;;;;5076365;28;20039;-67
2022/08/28 03:52:55;;;;;;;7.50;2.00;;;14.90;99.90;;;;;;5076243;28;20099;-67
2022/08/28 03:55:22;;;;;;;11.10;2.58;;;14.90;99.90;;;;;;5075374;28;20103;-67
2022/08/28 03:57:48;;;;;;;11.77;2.83;;;14.90;99.90;;;;;;5076082;28;20095;-68
2022/08/28 04:00:15;;;;;;;8.65;2.47;;;14.90;99.90;;;;;;5075968;28;20071;-67
2022/08/28 04:02:41;;;;;;;8.15;2.03;;;14.90;99.90;;;;;;5076094;28;20024;-67
2022/08/28 04:05:08;;;;;;;8.73;2.25;;;14.80;99.90;;;;;;5074489;28;20481;-68
2022/08/28 04:07:35;;;;;;;10.85;3.30;;;14.80;99.90;;;;;;5075759;28;20024;-67
2022/08/28 04:10:02;;;;;;;9.43;2.25;;;14.80;99.90;;;;;;5075922;28;20024;-66
2022/08/28 04:12:27;;;;;;;8.18;2.78;;;14.70;99.90;;;;;;5075730;28;20462;-67
2022/08/28 04:14:53;;;;;;;6.90;2.33;;;14.70;99.90;;;;;;5075776;28;20031;-67
2022/08/28 04:17:19;;;;;;;10.65;2.53;;;14.70;99.90;;;;;;5075347;28;20395;-67
2022/08/28 04:19:44;;;;;;;7.70;2.20;;;14.70;99.90;;;;;;5075636;28;20025;-69
2022/08/28 04:22:10;;;;;;;9.30;2.17;;;14.70;99.90;;;;;;5075578;28;20041;-67
2022/08/28 04:24:36;;;;;;;4.70;1.75;;;14.70;99.90;;;;;;5075828;28;20031;-67
2022/08/28 04:27:01;;;;;;;9.23;2.33;;;14.70;99.90;;;;;;5075564;28;20439;-68
2022/08/28 04:29:29;;;;;;;14.68;2.60;;;14.70;99.90;;;;;;5075648;28;20028;-66
2022/08/28 04:31:56;;;;;;;8.75;2.25;;;14.80;99.90;;;;;;5075713;28;20059;-70
2022/08/28 04:34:23;;;;;;;7.00;2.15;;;14.80;99.90;;;;;;5075289;28;20455;-69
2022/08/28 04:36:52;;;;;;;3.28;1.85;;;14.90;99.90;;;;;;5075571;28;20029;-71
2022/08/28 04:39:18;;;;;;;8.80;2.15;;;15.00;99.90;;;;;;5075532;28;20024;-67
2022/08/28 04:41:43;;;;;;;6.32;1.75;;;15.10;99.90;;;;;;5075329;28;20099;-67
2022/08/28 04:44:09;;;;;;;7.53;2.20;;;15.20;99.90;;;;;;5075524;28;20392;-67
2022/08/28 04:46:35;;;;;;;10.15;2.15;;;15.30;99.90;;;;;;5075150;28;20443;-70
2022/08/28 04:49:03;;;;;;;13.82;2.60;;;15.40;99.90;;;;;;5073862;28;20374;-68
2022/08/28 04:51:28;;;;;;;4.57;1.70;;;15.40;99.90;;;;;;5075017;28;20025;-66
2022/08/28 04:53:55;;;;;;;9.32;2.58;;;15.40;99.90;;;;;;5075091;28;20032;-67
2022/08/28 04:56:20;;;;;;;7.65;1.98;;;15.50;99.90;;;;;;5073849;28;20025;-66
2022/08/28 04:58:46;;;;;;;8.57;1.90;;;15.50;99.90;;;;;;5075101;28;20017;-67
2022/08/28 05:01:17;;;;;;;12.65;2.78;;;15.50;99.90;;;;;;5075052;28;20040;-67
2022/08/28 05:03:44;;;;;;;11.63;2.55;;;15.40;99.90;;;;;;5075019;28;20017;-71
2022/08/28 05:06:13;;;;;;;9.80;2.15;;;15.40;99.90;;;;;;5074959;28;20019;-67
2022/08/28 05:08:39;;;;;;;11.98;4.25;;;15.40;99.90;;;;;;5074880;28;20360;-68
2022/08/28 05:11:15;;;;;;;8.02;2.05;;;15.40;99.90;;;;;;5075051;28;20025;-66
2022/08/28 05:13:42;;;;;;;12.63;2.47;;;15.40;99.90;;;;;;5075042;28;20066;-70
2022/08/28 05:16:07;;;;;;;7.72;2.00;;;15.40;99.90;;;;;;5074736;28;20017;-67
2022/08/28 05:18:34;;;;;;;5.90;1.95;;;15.40;99.90;;;;;;5075042;28;20027;-67
2022/08/28 05:21:00;;;;;;;9.77;2.30;;;15.40;99.90;;;;;;5073538;28;20036;-70
2022/08/28 05:23:26;;;;;;;5.75;2.28;;;15.50;99.90;;;;;;5074916;28;20370;-69
2022/08/28 05:25:52;;;;;;;7.47;2.50;;;15.50;99.90;;;;;;5075221;28;20016;-68
2022/08/28 05:28:18;;;;;;;6.10;2.28;;;15.50;99.90;;;;;;5073246;28;20035;-73
2022/08/28 05:30:44;;;;;;;6.63;2.20;;;15.50;99.90;;;;;;5074561;28;20537;-70
2022/08/28 05:33:12;;;;;;;7.68;2.15;;;15.50;99.90;;;;;;5074310;28;20110;-70
2022/08/28 05:35:40;;;;;;;5.88;2.10;;;15.60;99.90;;;;;;5074464;28;20012;-70
2022/08/28 05:38:06;;;;;;;9.82;2.75;;;15.60;99.90;;;;;;5074160;28;20021;-70
2022/08/28 05:40:32;;;;;;;9.93;2.40;;;15.70;99.90;;;;;;5072877;28;20471;-65
2022/08/28 05:42:58;;;;;;;9.75;2.33;;;15.80;99.90;;;;;;5074518;28;20017;-67
2022/08/28 05:45:24;;;;;;;6.38;1.83;;;15.80;99.90;;;;;;5074566;28;20100;-67
2022/08/28 05:47:50;;;;;;;8.77;2.00;;;15.90;99.90;;;;;;5074309;28;20048;-67
2022/08/28 05:50:17;;;;;;;7.50;2.28;;;16.10;99.90;;;;;;5074436;28;20028;-68
2022/08/28 05:52:43;;;;;;;10.00;2.38;;;16.20;99.90;;;;;;5074271;28;20039;-67
2022/08/28 05:55:10;;;;;;;8.52;2.63;;;16.30;99.90;;;;;;5074422;28;20037;-67
2022/08/28 05:57:37;;;;;;;7.85;2.30;;;16.50;99.90;;;;;;5072918;28;20478;-67
2022/08/28 06:00:04;;;;;;;4.65;1.90;;;16.70;99.90;;;;;;5071876;28;20087;-70
2022/08/28 06:02:30;;;;;;;5.60;2.30;;;16.90;99.90;;;;;;5072817;28;20068;-70
2022/08/28 06:04:56;;;;;;;11.48;1.95;;;17.10;99.90;;;;;;5073003;28;20418;-67
2022/08/28 06:07:22;;;;;;;13.25;2.67;;;17.30;99.90;;;;;;5072930;28;20063;-70
2022/08/28 06:09:48;;;;;;;6.35;1.83;;;17.40;99.90;;;;;;5073319;28;20028;-67
2022/08/28 06:12:14;;;;;;;7.63;1.90;;;17.50;99.90;;;;;;5071907;28;20129;-68
2022/08/28 06:14:40;;;;;;;10.63;2.58;;;17.60;99.90;;;;;;5073257;28;20016;-70
2022/08/28 06:17:05;;;;;;;9.88;2.95;;;17.70;99.90;;;;;;5073798;28;20366;-67
2022/08/28 06:19:34;;;;;;;4.85;1.95;;;17.90;99.90;;;;;;5073735;28;20028;-70
2022/08/28 06:22:02;;;;;;;7.57;2.33;;;18.00;99.90;;;;;;5072041;28;20039;-66
2022/08/28 06:24:29;;;;;;;7.70;2.22;;;18.10;99.90;;;;;;5073429;28;20032;-67
2022/08/28 06:26:55;;;;;;;10.60;2.67;;;18.30;99.90;;;;;;5073582;28;20454;-68
2022/08/28 06:29:21;;;;;;;5.28;2.17;;;18.50;99.90;;;;;;5073521;28;20082;-69
2022/08/28 06:31:51;;;;;;;6.63;1.88;;;18.70;99.90;;;;;;5073409;28;20096;-66
2022/08/28 06:34:17;;;;;;;3.97;1.70;;;18.80;99.90;;;;;;5073799;28;20572;-67
2022/08/28 06:36:43;;;;;;;3.40;1.60;;;18.90;99.90;;;;;;5072464;28;20103;-67
2022/08/28 06:39:10;;;;;;;4.93;1.45;;;19.20;99.90;;;;;;5073571;28;20056;-68
2022/08/28 06:41:41;;;;;;;9.45;2.17;;;19.30;99.90;;;;;;5071825;28;20032;-68
2022/08/28 06:44:13;;;;;;;4.45;1.40;;;19.50;99.90;;;;;;5073318;28;20425;-67
2022/08/28 06:46:40;;;;;;;5.75;2.10;;;19.60;99.90;;;;;;5073310;28;20020;-67
2022/08/28 06:49:07;;;;;;;9.20;2.33;;;19.70;99.90;;;;;;5073323;28;20494;-71
2022/08/28 06:51:34;;;;;;;11.43;3.65;;;19.80;99.90;;;;;;5073319;28;20455;-66
2022/08/28 06:54:00;;;;;;;7.53;2.08;;;19.90;99.90;;;;;;5072911;28;20055;-68
2022/08/28 06:56:26;;;;;;;7.93;1.90;;;19.90;99.90;;;;;;5073014;28;20028;-72
2022/08/28 06:58:52;;;;;;;7.53;1.70;;;20.00;99.90;;;;;;5072928;28;20020;-67
2022/08/28 07:01:21;;;;;;;6.65;2.05;;;20.10;99.90;;;;;;5073072;28;20585;-68
2022/08/28 07:03:48;;;;;;;3.10;1.27;;;20.20;99.90;;;;;;5073195;28;20062;-67
2022/08/28 07:06:14;;;;;;;6.90;2.15;;;20.40;99.90;;;;;;5073021;28;20054;-68
2022/08/28 07:08:42;;;;;;;3.67;1.48;;;20.50;99.90;;;;;;5073334;28;20016;-70
2022/08/28 07:11:10;;;;;;;10.43;2.80;;;20.80;99.90;;;;;;5073079;28;20036;-67
2022/08/28 07:13:36;;;;;;;6.85;1.80;;;21.00;99.90;;;;;;5072968;28;20020;-71
2022/08/28 07:16:02;;;;;;;5.95;1.58;;;21.10;99.60;;;;;;5073244;28;20028;-67
2022/08/28 07:18:28;;;;;;;4.25;1.65;;;21.20;99.80;;;;;;5073506;28;20024;-67
2022/08/28 07:20:56;;;;;;;5.53;1.45;;;21.20;99.50;;;;;;5079648;28;20027;-68
2022/08/28 07:23:21;;;;;;;9.65;1.80;;;21.20;99.40;;;;;;5079132;28;20024;-67
2022/08/28 07:25:47;;;;;;;7.15;1.65;;;21.10;99.40;;;;;;5079637;28;20024;-68
2022/08/28 07:28:12;;;;;;;4.22;1.30;;;21.10;99.70;;;;;;5079652;28;20020;-69
2022/08/28 07:30:38;;;;;;;8.77;1.65;;;21.20;99.70;;;;;;5079176;28;20428;-67
2022/08/28 07:33:03;;;;;;;7.90;1.67;;;21.40;99.00;;;;;;5079060;28;20678;-67
2022/08/28 07:35:29;;;;;;;4.05;1.73;;;21.70;98.70;;;;;;5079222;28;20215;-69
2022/08/28 07:37:54;;;;;;;9.93;2.00;;;22.00;98.50;;;;;;5079037;28;20096;-70
2022/08/28 07:40:21;;;;;;;7.25;1.77;;;22.30;97.90;;;;;;5079229;28;20032;-67
2022/08/28 07:45:30;;;;;;;5.82;1.60;;;22.90;96.40;;;;;;5079312;28;20384;-68
2022/08/28 07:47:57;;;;;;;5.60;1.30;;;23.30;96.00;;;;;;5079615;28;20021;-67
2022/08/28 07:50:22;;;;;;;8.43;2.45;;;23.60;95.40;;;;;;5078943;28;20022;-67
2022/08/28 07:52:48;;;;;;;7.78;2.03;;;23.50;95.10;;;;;;5079082;28;20016;-70
2022/08/28 07:55:13;;;;;;;10.68;1.70;;;23.60;95.10;;;;;;5079133;28;20031;-66
2022/08/28 07:57:39;;;;;;;5.63;2.20;;;23.90;94.60;;;;;;5077816;28;20059;-67
2022/08/28 08:00:08;;;;;;;4.78;1.70;;;24.30;93.90;;;;;;5078829;28;20037;-68
2022/08/28 08:02:34;;;;;;;3.70;1.58;;;24.60;93.40;;;;;;5079120;28;20442;-67
2022/08/28 08:05:00;;;;;;;7.93;1.70;;;25.00;92.60;;;;;;5079011;28;20086;-70
2022/08/28 08:07:25;;;;;;;4.85;1.23;;;25.40;91.80;;;;;;5079059;28;20017;-67
2022/08/28 08:09:51;;;;;;;4.90;1.92;;;25.20;91.50;;;;;;5079004;28;20335;-67
2022/08/28 08:12:16;;;;;;;4.43;1.58;;;25.40;91.60;;;;;;5079300;28;20048;-71
2022/08/28 08:14:42;;;;;;;3.47;1.40;;;25.60;91.00;;;;;;5079184;28;20027;-68
2022/08/28 08:17:09;;;;;;;6.53;1.23;;;25.80;90.90;;;;;;5079893;28;20052;-67
2022/08/28 08:19:35;;;;;;;4.38;1.65;;;25.70;90.70;;;;;;5079200;28;20024;-68
2022/08/28 08:22:01;;;;;;;4.50;1.63;;;25.80;91.00;;;;;;5078877;28;20036;-67
2022/08/28 08:24:29;;;;;;;5.10;1.35;;;26.60;90.10;;;;;;5079170;28;20021;-67
2022/08/28 08:26:57;;;;;;;6.05;1.63;;;27.30;88.50;;;;;;5079097;28;20074;-67
2022/08/28 08:29:23;;;;;;;6.80;2.10;;;27.90;87.10;;;;;;5077996;28;20024;-68
2022/08/28 08:32:03;;;;;;;4.53;1.40;;;28.40;85.10;;;;;;5076430;28;20056;-67
2022/08/28 08:34:30;;;;;;;8.02;1.80;;;28.90;82.20;;;;;;5075847;28;20071;-68
2022/08/28 08:36:56;;;;;;;5.57;1.70;;;28.90;81.50;;;;;;5076104;28;20025;-67
2022/08/28 08:39:21;;;;;;;5.85;1.33;;;29.10;81.20;;;;;;5076104;28;20027;-67
2022/08/28 08:41:50;;;;;;;5.45;1.38;;;29.30;80.10;;;;;;5075713;28;20040;-67
2022/08/28 08:44:16;;;;;;;4.07;1.30;;;29.10;80.50;;;;;;5075836;28;20048;-71
2022/08/28 08:46:48;;;;;;;3.45;1.55;;;28.70;80.50;;;;;;5075408;28;20059;-69
2022/08/28 08:49:17;;;;;;;7.43;1.90;;;28.30;81.20;;;;;;5074363;28;20028;-67
2022/08/28 08:51:50;;;;;;;4.38;1.85;;;27.70;82.60;;;;;;5075274;28;20031;-68
2022/08/28 08:54:19;;;;;;;5.88;1.13;;;27.50;82.80;;;;;;5075102;28;20517;-70
2022/08/28 08:56:46;;;;;;;2.97;1.08;;;27.70;81.90;;;;;;5074170;28;20020;-68
2022/08/28 08:59:20;;;;;;;3.58;1.15;;;27.80;80.80;;;;;;5074512;28;20481;-67
2022/08/28 09:01:58;;;;;;;6.32;1.67;;;28.10;79.90;;;;;;5075427;28;20115;-71
2022/08/28 09:04:46;;;;;;;4.63;1.63;;;28.20;80.00;;;;;;5075350;28;20016;-69
2022/08/28 09:07:19;;;;;;;4.82;1.52;;;28.70;80.00;;;;;;5075205;28;20020;-68
2022/08/28 09:09:55;;;;;;;8.38;1.70;;;29.30;78.90;;;;;;5073417;28;20016;-68
2022/08/28 09:12:22;;;;;;;3.47;1.27;;;29.80;78.40;;;;;;5073836;28;20025;-68
2022/08/28 09:15:08;;;;;;;5.28;1.50;;;30.60;76.40;;;;;;5074904;28;20021;-68
2022/08/28 09:17:41;;;;;;;3.45;1.20;;;31.10;75.60;;;;;;5074938;28;20047;-68
2022/08/28 09:20:12;;;;;;;4.10;1.40;;;31.60;73.80;;;;;;5074901;28;20119;-71
2022/08/28 09:22:42;;;;;;;2.75;1.25;;;31.80;73.00;;;;;;5074614;28;20104;-68
2022/08/28 09:25:11;;;;;;;4.68;1.70;;;31.70;72.30;;;;;;5074987;28;20029;-68
2022/08/28 09:27:51;;;;;;;5.00;1.52;;;32.10;72.80;;;;;;5075090;28;20025;-68
2022/08/28 09:30:29;;;;;;;5.45;1.67;;;32.50;70.50;;;;;;5074734;28;20396;-72
2022/08/28 09:33:00;;;;;;;5.80;1.17;;;33.00;69.40;;;;;;5074599;28;20024;-68
2022/08/28 09:35:34;;;;;;;4.78;1.30;;;33.30;68.80;;;;;;5074305;28;20506;-68
2022/08/28 09:38:21;;;;;;;5.43;1.40;;;33.10;67.90;;;;;;5074639;28;20024;-66
2022/08/28 09:43:33;;;;;;;3.63;1.30;;;32.40;68.10;;;;;;5074120;28;20247;-70
2022/08/28 09:46:20;;;;;;;3.95;1.42;;;31.50;69.10;;;;;;5074217;28;20085;-68
2022/08/28 09:48:51;;;;;;;5.38;1.40;;;31.20;69.00;;;;;;5074468;28;20362;-70
2022/08/28 09:51:19;;;;;;;3.47;1.20;;;31.10;69.30;;;;;;5074374;28;20042;-67
2022/08/28 09:53:50;;;;;;;4.53;1.77;;;30.90;69.20;;;;;;5054864;28;20017;-71
2022/08/28 09:56:20;;;;;;;10.30;1.83;;;30.70;68.60;;;;;;5065501;28;20025;-69
2022/08/28 09:58:51;;;;;;;4.88;1.50;;;30.90;68.90;;;;;;5073576;28;20012;-68
2022/08/28 10:01:28;;;;;;;4.70;1.77;;;31.20;69.20;;;;;;5073975;28;20045;-67
2022/08/28 10:04:10;;;;;;;4.28;1.70;;;32.00;68.60;;;;;;5058362;28;20032;-67
2022/08/28 10:06:36;;;;;;;4.03;1.60;;;32.70;66.70;;;;;;5073659;28;20120;-68
2022/08/28 10:09:26;;;;;;;3.05;1.65;;;33.30;66.00;;;;;;5073574;28;20103;-67
2022/08/28 10:12:12;;;;;;;3.30;1.20;;;33.60;64.30;;;;;;5059655;28;20085;-70
2022/08/28 10:14:45;;;;;;;3.75;1.52;;;33.80;63.60;;;;;;5054131;28;20060;-67
2022/08/28 10:18:02;;;;;;;3.90;1.20;;;33.60;63.70;;;;;;5053754;28;20021;-67
2022/08/28 10:21:01;;;;;;;4.32;1.27;;;33.80;63.70;;;;;;5036069;28;20036;-67
2022/08/28 10:23:36;;;;;;;4.95;1.83;;;34.00;62.70;;;;;;5053263;28;20437;-66
2022/08/28 10:26:14;;;;;;;2.75;1.10;;;33.70;62.60;;;;;;5054071;28;20023;-65
2022/08/28 10:29:27;;;;;;;5.18;2.10;;;32.70;62.80;;;;;;5066072;28;20044;-67
2022/08/28 10:32:17;;;;;;;4.45;1.20;;;31.50;64.70;;;;;;5069914;28;20478;-68
2022/08/28 10:34:56;;;;;;;4.85;1.55;;;31.10;64.80;;;;;;5073141;28;20408;-67
2022/08/28 10:37:33;;;;;;;2.22;1.20;;;30.60;65.60;;;;;;5073337;28;20024;-66
2022/08/28 10:40:03;;;;;;;3.63;1.13;;;30.20;66.30;;;;;;5073599;28;20385;-66
2022/08/28 10:42:36;;;;;;;4.53;1.85;;;29.70;67.10;;;;;;5073351;28;20051;-66
2022/08/28 10:45:26;;;;;;;3.95;1.50;;;29.10;67.80;;;;;;5073112;28;20026;-70
2022/08/28 10:47:59;;;;;;;6.97;1.55;;;28.50;70.00;;;;;;5070252;28;20105;-67
2022/08/28 10:50:30;;;;;;;4.88;1.88;;;28.60;70.20;;;;;;5073149;28;20078;-69
2022/08/28 10:53:07;;;;;;;5.32;1.23;;;29.10;68.90;;;;;;5071941;28;20086;-66
2022/08/28 10:55:46;;;;;;;2.05;1.00;;;29.00;69.10;;;;;;5072796;28;20024;-69
2022/08/28 10:58:14;;;;;;;2.70;1.00;;;28.60;69.80;;;;;;5073113;28;20451;-67
2022/08/28 11:00:42;;;;;;;3.67;1.08;;;27.80;70.70;;;;;;5072169;28;20040;-67
2022/08/28 11:03:15;;;;;;;5.18;1.42;;;27.10;72.00;;;;;;5073025;28;20027;-69
2022/08/28 11:05:48;;;;;;;5.97;1.77;;;26.60;73.30;;;;;;5064261;28;20454;-67
2022/08/28 11:08:31;;;;;;;4.60;1.52;;;26.80;73.40;;;;;;5064029;28;20029;-67
2022/08/28 11:11:05;;;;;;;4.05;1.70;;;27.80;72.30;;;;;;5072731;28;20366;-68
2022/08/28 11:13:40;;;;;;;4.43;2.05;;;29.40;69.70;;;;;;5072685;28;20025;-67
2022/08/28 11:16:20;;;;;;;4.03;1.70;;;30.10;68.50;;;;;;5073022;28;20037;-66
2022/08/28 11:19:13;;;;;;;6.60;1.33;;;29.90;68.70;;;;;;5072788;28;20115;-66
2022/08/28 11:22:00;;;;;;;5.50;1.40;;;29.20;69.50;;;;;;5073292;28;20036;-69
2022/08/28 11:24:52;;;;;;;5.32;1.40;;;28.00;69.70;;;;;;5061427;28;20017;-66
2022/08/28 11:27:17;;;;;;;6.90;1.88;;;27.10;71.50;;;;;;5068054;28;20047;-66
2022/08/28 11:30:03;;;;;;;6.57;1.60;;;26.50;73.10;;;;;;5072209;28;20016;-66
2022/08/28 11:32:34;;;;;;;3.05;1.02;;;25.90;74.70;;;;;;5072776;28;20048;-68
2022/08/28 11:35:28;;;;;;;3.33;1.17;;;25.60;76.60;;;;;;5072451;28;20028;-69
2022/08/28 11:37:56;;;;;;;7.25;1.40;;;25.00;77.80;;;;;;5073001;28;20024;-66
2022/08/28 11:40:33;;;;;;;4.13;1.33;;;24.70;78.90;;;;;;5072706;28;20077;-67
2022/08/28 11:43:13;;;;;;;3.45;1.40;;;24.50;79.70;;;;;;5072868;28;20127;-70
2022/08/28 11:45:42;;;;;;;1.73;0.80;;;25.50;77.20;;;;;;5072758;28;20085;-67
2022/08/28 11:48:31;;;;;;;3.17;1.23;;;26.70;73.50;;;;;;5071804;28;20103;-67
2022/08/28 11:51:53;;;;;;;7.00;1.20;;;27.60;72.00;;;;;;5064827;28;20043;-67
2022/08/28 11:54:40;;;;;;;2.05;0.93;;;28.40;71.80;;;;;;5070928;28;20489;-67
2022/08/28 11:57:14;;;;;;;3.70;1.10;;;29.10;70.70;;;;;;5071862;28;20032;-67
2022/08/28 12:00:02;;;;;;;3.10;1.27;;;29.40;69.60;;;;;;5071937;28;20116;-69
2022/08/28 12:02:37;;;;;;;3.10;1.20;;;30.00;69.30;;;;;;5066502;28;20072;-67
2022/08/28 12:05:06;;;;;;;4.50;1.48;;;30.60;68.40;;;;;;5052632;28;20036;-67
2022/08/28 12:07:38;;;;;;;3.13;1.25;;;31.00;68.20;;;;;;5056748;28;20447;-70
2022/08/28 12:10:21;;;;;;;;;;;31.40;67.00;;;;;;5065742;28;20020;-68
2022/08/28 12:12:47;;;;;;;3.60;1.20;;;31.70;65.80;;;;;;5075965;28;20357;-69
2022/08/28 12:15:37;;;;;;;2.88;1.17;;;31.40;64.50;;;;;;5076106;28;20021;-67
2022/08/28 12:18:09;;;;;;;3.55;1.10;;;30.20;65.50;;;;;;5070771;28;20025;-65
2022/08/28 12:20:57;;;;;;;2.45;1.10;;;28.90;66.70;;;;;;5076180;28;20021;-66
2022/08/28 12:23:22;;;;;;;3.50;1.52;;;27.80;67.90;;;;;;5075338;28;20033;-70
2022/08/28 12:25:57;;;;;;;1.27;0.70;;;26.80;68.00;;;;;;5076007;28;20040;-67
2022/08/28 12:29:03;;;;;;;4.57;1.25;;;26.40;70.50;;;;;;5076299;28;20087;-66
2022/08/28 12:32:11;;;;;;;3.60;1.08;;;27.10;70.50;;;;;;5075985;28;20461;-67
2022/08/28 12:34:49;;;;;;;3.47;1.10;;;28.40;69.30;;;;;;5075911;28;20016;-67
2022/08/28 12:37:23;;;;;;;4.28;1.30;;;30.10;67.50;;;;;;5075498;28;20030;-68
2022/08/28 12:39:49;;;;;;;1.38;1.00;;;31.00;65.80;;;;;;5076112;28;20028;-69
2022/08/28 12:42:21;;;;;;;3.47;1.20;;;30.70;65.50;;;;;;5075482;28;20029;-68
2022/08/28 12:44:47;;;;;;;3.38;1.17;;;29.70;66.60;;;;;;5075613;28;20099;-66
2022/08/28 12:47:21;;;;;;;5.95;1.67;;;28.50;68.00;;;;;;5075948;28;20051;-67
2022/08/28 12:49:47;;;;;;;4.47;1.33;;;27.50;69.60;;;;;;5075667;28;20459;-67
2022/08/28 12:52:17;;;;;;;2.28;1.33;;;27.10;69.50;;;;;;5075042;28;20078;-68
2022/08/28 12:54:44;;;;;;;4.07;1.90;;;27.00;68.00;;;;;;5072370;28;20032;-70
2022/08/28 12:57:12;;;;;;;4.82;1.60;;;27.20;68.20;;;;;;5060520;28;20032;-65
2022/08/28 12:59:43;;;;;;;3.78;1.20;;;27.30;69.00;;;;;;5070507;28;20049;-67
2022/08/28 13:02:16;;;;;;;3.03;1.27;;;27.50;69.10;;;;;;5075228;28;20094;-67
2022/08/28 13:04:57;;;;;;;2.25;1.15;;;27.50;69.60;;;;;;5075528;28;20020;-67
2022/08/28 13:07:30;;;;;;;1.80;1.20;;;27.30;69.10;;;;;;5073452;28;20024;-66
2022/08/28 13:09:59;;;;;;;3.47;1.30;;;26.90;68.50;;;;;;5075122;28;20079;-67
2022/08/28 13:12:38;;;;;;;3.20;1.35;;;26.50;68.50;;;;;;5075111;28;20025;-67